Ashfield, Massachusetts
Current Conditions -  °F | °C
As of 5:52 PM on Thursday 23 Oct 2014 (Local Time) from KAQW Reporting Station
Overcast Overcast  
Wind Chill: 41°   Ceiling: 900
Heat Index: 45°   Visibility: 10mi
Dew Point: 43°   Wind: 8mph
Humidity: 93%   Direction: 290°WNW
Pressure: 29.78"   Gusts: NA
Location:  42.53°N, 72.79°W
Report Text: KAQW 232152Z AUTO 29007KT 260V330 10SM OVC009 07/06 A2978 RMK AO2 CIG 007V011 SLP088 T00720061
Loading
Personal Weather Stations






























Interactive Weather Map
Tropical Storm Tracking
New forecast layout! Learn more

10-Day Weather Forecast

Advertisements
Track Severe Weather on mobile